EGPE

Inverness Airport

Inverness, United Kingdom
METAR EGPE 120050Z AUTO 19007KT 150V220 9999 NCD 09/05 Q1017
Observed Flight Rules
Dec-12 @ 00:50 UTC (20 minutes ago) Visual Flight Rules
Wind Visibility Clouds
190° at 7 knots 10,000+ meters
  • Clear skies
Temperatures Readings
Current 9°C / 48°F
Dewpoint 5°C / 41°F
Humidity 76%
Altimeter 30.03" Hg
Pressure 1017 hPa
Elevation 9
METAR EGPE 120050Z AUTO 19007KT 150V220 9999 NCD 09/05 Q1017
Observed Flight Rules
Dec-12 @ 00:50 UTC
(20 minutes ago)
VFR
Wind Visibility
190° at 7 knots 10,000+ meters
Clouds
  • Clear skies
Temperature Dewpoint
9°C / 48°F 5°C / 41°F
Humidity Altimeter Pressure
76% 30.03" Hg 1017 hPa